Latest Weather Observations for Terrey Hills

IDN60901

Issued at 8:25 pm EST Monday 28 July 2014 (issued every 10 minutes, with the page automatically refreshed every 10 minutes)

About weather observations | Map of Sydney area stations | Latest observations for Sydney area | Other Formats
Station Details ID: 066059 Name: TERREY HILLS AWS Lat: -33.69 Lon: 151.23 Height: 199.0 m
Data from the previous 72 hours. | See also: Recent months at Terrey Hills
Date/Time
EST
Tmp

°C
App
Tmp
°C
Dew
Point
°C
Rel
Hum
%
Delta-T

°C
Wind Press
QNH
hPa
Press
MSL
hPa
Rain
since
9 am
mm
Dir
 
Spd
km/h
Gust
km/h
Spd
kts
Gust
kts
28/08:00pm 12.7 10.7 4.2 56 3.9 NW 4 7 2 4 - - 0.0
28/07:30pm 13.0 11.3 3.9 54 4.2 NW 2 6 1 3 - - 0.0
28/07:00pm 13.8 12.1 3.9 51 4.5 N 2 6 1 3 - - 0.0
28/06:30pm 13.7 11.6 4.0 52 4.5 N 4 6 2 3 - - 0.0
28/06:00pm 14.2 12.9 4.2 51 4.6 CALM 0 0 0 0 - - 0.0
28/05:30pm 14.4 13.2 4.4 51 4.7 CALM 0 0 0 0 - - 0.0
28/05:00pm 14.4 13.2 4.7 52 4.6 CALM 0 4 0 2 - - 0.0
28/04:30pm 14.8 13.7 5.1 52 4.6 CALM 0 0 0 0 - - 0.0
28/04:00pm 15.4 14.2 4.8 49 5.0 CALM 0 0 0 0 - - 0.0
28/03:30pm 15.7 13.3 4.1 46 5.4 W 6 9 3 5 - - 0.0
28/03:00pm 16.5 13.5 3.9 43 5.9 W 9 17 5 9 - - 0.0
28/02:30pm 16.7 14.2 5.0 46 5.6 W 7 15 4 8 - - 0.0
28/02:00pm 16.4 13.4 4.1 44 5.8 WNW 9 17 5 9 - - 0.0
28/01:30pm 15.8 13.2 4.2 46 5.5 W 7 19 4 10 - - 0.0
28/01:00pm 16.2 12.5 4.3 45 5.6 W 13 28 7 15 - - 0.0
28/12:30pm 16.0 12.2 3.8 44 5.7 W 13 26 7 14 - - 0.0
28/12:00pm 15.7 11.1 3.8 45 5.5 W 17 32 9 17 - - 0.0
28/11:30am 15.6 11.8 4.0 46 5.4 W 13 24 7 13 - - 0.0
28/11:00am 14.8 10.6 3.6 47 5.2 W 15 26 8 14 - - 0.0
28/10:30am 14.2 10.7 5.3 55 4.2 W 13 22 7 12 - - 0.0
28/10:00am 13.5 10.3 5.2 57 3.9 WNW 11 22 6 12 - - 0.0
28/09:30am 12.7 9.6 5.6 62 3.4 WNW 11 19 6 10 - - 0.0
28/09:00am 10.7 8.1 5.9 72 2.2 WNW 9 15 5 8 - - 0.0
28/08:30am 9.8 7.0 5.2 73 2.1 WNW 9 13 5 7 - - 0.0
28/08:00am 8.8 6.0 5.0 77 1.7 WNW 9 11 5 6 - - 0.0
28/07:30am 7.3 4.4 4.8 84 1.1 WNW 9 13 5 7 - - 0.0
28/07:00am 7.5 4.2 4.8 83 1.2 W 11 15 6 8 - - 0.0
28/06:30am 7.9 5.0 4.7 80 1.4 WNW 9 13 5 7 - - 0.0
28/06:00am 8.0 5.5 4.8 80 1.4 WNW 7 11 4 6 - - 0.0
28/05:30am 7.5 4.7 5.0 84 1.1 WNW 9 11 5 6 - - 0.0
28/05:00am 7.3 4.0 4.8 84 1.1 W 11 13 6 7 - - 0.0
28/04:30am 7.6 4.3 4.7 82 1.3 W 11 13 6 7 - - 0.0
28/04:00am 8.2 5.0 5.0 80 1.4 W 11 15 6 8 - - 0.0
28/03:30am 9.1 5.5 4.9 75 1.9 W 13 20 7 11 - - 0.0
28/03:00am 7.9 4.4 5.5 85 1.1 W 13 19 7 10 - - 0.0
28/02:30am 8.1 4.7 5.7 85 1.1 W 13 20 7 11 - - 0.0
28/02:00am 7.5 4.6 6.6 94 0.4 W 11 15 6 8 - - 0.0
28/01:30am 7.1 4.1 6.2 94 0.4 W 11 13 6 7 - - 0.0
28/01:00am 7.1 3.9 5.3 88 0.8 W 11 13 6 7 - - 0.0
28/12:30am 9.7 7.7 6.1 78 1.7 NNW 6 7 3 4 - - 0.0
28/12:00am 11.0 8.6 4.2 63 3.1 N 6 7 3 4 - - 0.0
 
Date/Time
EST
Tmp

°C
App
Tmp
°C
Dew
Point
°C
Rel
Hum
%
Delta-T

°C
Wind Press
QNH
hPa
Press
MSL
hPa
Rain
since
9 am
mm
Dir
 
Spd
km/h
Gust
km/h
Spd
kts
Gust
kts
27/11:30pm 11.0 9.9 4.9 66 2.8 CALM 0 0 0 0 - - 0.0
27/11:00pm 10.9 9.7 4.4 64 2.9 CALM 0 0 0 0 - - 0.0
27/10:30pm 11.6 9.6 4.3 61 3.3 SSW 4 4 2 2 - - 0.0
27/10:00pm 11.8 9.9 4.8 62 3.2 SW 4 6 2 3 - - 0.0
27/09:30pm 11.9 11.3 7.4 74 2.2 CALM 0 7 0 4 - - 0.0
27/09:00pm 11.7 11.0 7.0 73 2.3 CALM 0 0 0 0 - - 0.0
27/08:30pm 12.4 11.7 6.9 69 2.7 CALM 0 0 0 0 - - 0.0
27/08:00pm 12.7 11.2 7.0 68 2.8 SSE 4 7 2 4 - - 0.0
27/07:30pm 12.5 11.8 6.8 68 2.8 CALM 0 4 0 2 - - 0.0
27/07:00pm 12.0 10.9 6.9 71 2.5 ENE 2 4 1 2 - - 0.0
27/06:30pm 12.0 10.4 6.3 68 2.7 ENE 4 6 2 3 - - 0.0
27/06:00pm 13.2 11.4 7.0 66 3.0 ESE 6 6 3 3 - - 0.0
27/05:30pm 12.6 11.1 6.6 67 2.9 E 4 6 2 3 - - 0.0
27/05:00pm 13.2 11.3 6.5 64 3.2 E 6 7 3 4 - - 0.0
27/04:30pm 14.3 12.1 6.2 58 3.9 ESE 7 11 4 6 - - 0.0
27/04:00pm 15.1 12.8 5.9 54 4.5 ESE 7 13 4 7 - - 0.0
27/03:30pm 15.8 13.2 6.0 52 4.8 E 9 15 5 8 - - 0.0
27/03:00pm 17.6 14.9 3.9 40 6.5 SW 7 11 4 6 - - 0.0
27/02:30pm 17.3 14.1 3.2 39 6.6 SW 9 15 5 8 - - 0.0
27/02:00pm 17.4 13.7 4.7 43 6.1 SW 13 26 7 14 - - 0.0
27/01:30pm 16.7 12.9 4.1 43 6.0 SW 13 24 7 13 - - 0.0
27/01:00pm - - - - - SW 9 19 5 10 - - 0.0
27/12:30pm 16.3 13.6 5.6 49 5.2 SSW 9 20 5 11 - - 0.0
27/12:00pm 15.7 13.0 5.6 51 4.9 WSW 9 17 5 9 - - 0.0
27/11:30am 15.4 12.1 6.2 54 4.5 WSW 13 19 7 10 - - 0.0
27/11:00am 14.9 11.5 6.0 55 4.3 WSW 13 20 7 11 - - 0.0
27/10:30am 14.2 10.2 6.6 60 3.7 WSW 17 26 9 14 - - 0.0
27/10:00am 13.6 9.5 6.2 61 3.6 WSW 17 28 9 15 - - 0.0
27/09:30am 12.9 8.9 6.5 65 3.1 WSW 17 26 9 14 - - 0.0
27/09:00am 12.0 8.7 6.3 68 2.7 W 13 24 7 13 - - 3.2
27/08:30am 10.7 7.8 6.3 74 2.1 W 11 17 6 9 - - 3.2
27/08:00am 9.3 5.9 6.0 80 1.5 W 13 17 7 9 - - 3.2
27/07:30am 8.2 4.7 5.5 83 1.2 W 13 17 7 9 - - 3.2
27/07:00am 7.9 4.4 5.5 85 1.1 W 13 19 7 10 - - 3.2
27/06:30am 7.8 4.7 5.6 86 1.0 W 11 15 6 8 - - 3.2
27/06:00am 7.8 4.7 5.4 85 1.1 W 11 17 6 9 - - 3.2
27/05:30am 8.0 5.3 5.6 85 1.1 W 9 13 5 7 - - 3.2
27/05:00am 8.3 5.6 5.6 83 1.2 W 9 13 5 7 - - 3.2
27/04:30am 8.5 5.8 5.4 81 1.4 W 9 13 5 7 - - 3.2
27/04:00am 9.2 6.6 5.9 80 1.5 W 9 13 5 7 - - 3.2
27/03:30am 9.3 6.6 5.7 78 1.7 W 9 13 5 7 - - 3.2
27/03:00am 9.5 6.9 5.9 78 1.7 W 9 15 5 8 - - 3.2
27/02:30am 9.0 6.0 5.9 81 1.4 W 11 17 6 9 - - 3.2
27/02:00am 9.0 6.3 5.7 80 1.5 W 9 11 5 6 - - 3.2
27/01:30am 9.4 6.7 5.8 78 1.7 W 9 13 5 7 - - 3.2
27/01:00am 9.6 7.0 6.0 78 1.7 W 9 11 5 6 - - 3.2
27/12:30am 9.9 7.6 5.7 75 1.9 W 7 11 4 6 - - 3.2
27/12:00am 10.9 8.3 6.1 72 2.3 W 9 15 5 8 - - 3.2
 
Date/Time
EST
Tmp

°C
App
Tmp
°C
Dew
Point
°C
Rel
Hum
%
Delta-T

°C
Wind Press
QNH
hPa
Press
MSL
hPa
Rain
since
9 am
mm
Dir
 
Spd
km/h
Gust
km/h
Spd
kts
Gust
kts
26/11:30pm 10.7 8.5 6.1 73 2.2 W 7 13 4 7 - - 3.2
26/11:00pm 10.6 8.0 6.2 74 2.1 W 9 13 5 7 - - 3.2
26/10:30pm 10.6 8.0 6.2 74 2.1 W 9 13 5 7 - - 3.2
26/10:00pm 10.8 8.3 6.4 74 2.1 W 9 13 5 7 - - 3.2
26/09:30pm 11.8 9.2 6.3 69 2.6 W 9 15 5 8 - - 3.2
26/09:00pm 11.4 8.9 6.5 72 2.3 W 9 15 5 8 - - 3.2
26/08:30pm 11.3 9.0 7.4 77 1.9 W 9 13 5 7 - - 3.2
26/08:00pm 11.8 10.0 7.9 77 1.9 W 7 13 4 7 - - 3.2
26/07:30pm 12.3 11.2 8.4 77 2.0 WNW 4 6 2 3 - - 3.2
26/07:00pm 13.1 11.6 9.0 76 2.1 W 7 13 4 7 - - 3.2
26/06:30pm 12.4 11.3 9.8 84 1.3 WNW 6 9 3 5 - - 3.2
26/06:00pm 12.2 11.0 9.6 84 1.3 WNW 6 7 3 4 - - 3.2
26/05:30pm 12.9 11.9 9.0 77 2.0 NW 4 7 2 4 - - 3.2
26/05:00pm 13.9 12.4 8.5 70 2.7 NW 6 7 3 4 - - 3.2
26/04:30pm 15.3 13.8 8.3 63 3.6 WNW 6 9 3 5 - - 3.2
26/04:00pm 16.0 14.4 8.2 60 4.0 WNW 6 11 3 6 - - 3.2
26/03:30pm 16.0 13.1 6.4 53 4.7 W 11 17 6 9 - - 3.2
26/03:00pm 13.4 7.4 7.2 66 3.0 WSW 28 56 15 30 - - 3.0
26/02:55pm 14.9 8.7 7.7 62 3.6 WSW 30 56 16 30 - - 3.0
26/02:30pm 16.6 16.2 12.4 76 2.3 W 6 11 3 6 - - 3.0
26/02:00pm 15.8 14.6 11.6 76 2.3 WNW 9 15 5 8 - - 3.0
26/01:30pm 15.2 14.8 13.1 87 1.2 WNW 7 15 4 8 - - 3.0
26/01:00pm 13.8 13.2 12.4 91 0.8 W 7 15 4 8 - - 3.0
26/12:30pm 12.3 11.8 12.0 98 0.2 W 6 9 3 5 - - 3.0
26/12:00pm 12.0 11.8 11.8 99 0.1 NW 4 9 2 5 - - 3.0
26/11:30am 12.0 11.2 11.7 98 0.2 NNW 7 11 4 6 - - 3.0
26/11:00am 11.9 10.3 11.4 97 0.3 N 11 17 6 9 - - 3.0
26/10:30am 11.8 11.1 11.5 98 0.2 N 6 9 3 5 - - 3.0
26/10:00am 11.6 10.7 11.4 99 0.1 W 7 11 4 6 - - 2.2
26/09:30am 11.6 10.9 11.3 98 0.2 S 6 13 3 7 - - 1.2
26/09:00am 12.3 11.6 12.1 99 0.1 W 7 13 4 7 - - 7.2
26/08:30am 12.5 11.9 12.3 99 0.1 WSW 7 15 4 8 - - 7.2
26/08:00am 12.1 11.6 11.9 99 0.1 SSW 6 9 3 5 - - 7.2
26/07:30am 12.0 12.2 11.8 99 0.1 WNW 2 4 1 2 - - 7.2
26/07:00am 12.1 11.6 11.9 99 0.1 NW 6 7 3 4 - - 7.0
26/06:30am 12.2 11.5 12.0 99 0.1 NW 7 11 4 6 - - 6.8
26/06:00am 12.2 11.7 11.9 98 0.2 NNW 6 9 3 5 - - 6.6
26/05:30am 12.0 11.3 11.5 97 0.3 WNW 6 11 3 6 - - 6.0
26/05:00am 12.7 11.9 11.6 93 0.6 NW 7 19 4 10 - - 2.4
26/04:30am 13.8 12.9 10.8 82 1.6 WNW 6 9 3 5 - - 1.0
26/04:00am 13.9 13.0 10.7 81 1.7 WNW 6 7 3 4 - - 1.0
26/03:30am 13.9 12.9 11.1 83 1.5 NNW 7 11 4 6 - - 1.0
26/03:00am 13.2 12.3 10.7 85 1.3 WNW 6 9 3 5 - - 1.0
26/02:30am 13.5 12.6 10.7 83 1.5 WNW 6 11 3 6 - - 1.0
26/02:00am 13.5 12.7 11.0 85 1.3 NW 6 9 3 5 - - 1.0
26/01:30am 12.9 12.0 10.6 86 1.2 WNW 6 9 3 5 - - 0.8
26/01:00am 13.8 13.3 10.8 82 1.6 NW 4 7 2 4 - - 0.8
26/12:30am 14.6 13.2 11.0 79 1.9 N 9 15 5 8 - - 0.8
26/12:00am 14.8 13.0 10.8 77 2.1 N 11 20 6 11 - - 0.8
 
Date/Time
EST
Tmp

°C
App
Tmp
°C
Dew
Point
°C
Rel
Hum
%
Delta-T

°C
Wind Press
QNH
hPa
Press
MSL
hPa
Rain
since
9 am
mm
Dir
 
Spd
km/h
Gust
km/h
Spd
kts
Gust
kts
25/11:30pm 14.4 13.0 10.8 79 1.9 N 9 15 5 8 - - 0.8
25/11:00pm 14.4 13.3 10.6 78 2.0 NNW 7 11 4 6 - - 0.8
25/10:30pm 14.9 13.4 10.7 76 2.2 NNW 9 15 5 8 - - 0.8
25/10:00pm 15.2 14.1 10.6 74 2.5 N 7 15 4 8 - - 0.8
25/09:30pm 15.4 14.5 10.6 73 2.6 N 6 11 3 6 - - 0.8
25/09:00pm 15.3 14.2 10.5 73 2.6 NNW 7 11 4 6 - - 0.8
25/08:30pm 15.1 14.1 10.3 73 2.5 NNW 6 9 3 5 - - 0.8

Latest Capital City Observations: Canberra | Sydney | Melbourne | Brisbane | Adelaide | Perth | Hobart | Darwin

Other Formats:

Comma delimited format used in spreadsheet applications
http://www.bom.gov.au/fwo/IDN60901/IDN60901.94759.axf

JavaScript Object Notation format (JSON) in row-major order
http://www.bom.gov.au/fwo/IDN60901/IDN60901.94759.json